Time;durP1;ratioP1;P1;durP2;ratioP2;P2;SDS_P1;SDS_P2;PMS_P1;PMS_P2;Temp;Humidity;BMP_temperature;BMP_pressure;BME280_temperature;BME280_humidity;BME280_pressure;Samples;Min_cycle;Max_cycle;Signal;HPM_P1;HPM_P2
2022/04/14 00:02:15;;;;;;;;;;;;;;;;;;6200692;23;19919;-85
2022/04/14 00:04:41;;;;;;;;;;;;;;;;;;6176361;23;19994;-85
2022/04/14 00:07:08;;;;;;;;;;;;;;;;;;6147706;23;19944;-85
2022/04/14 00:09:36;;;;;;;;;;;;;;;;;;6152982;23;20007;-85
2022/04/14 00:12:03;;;;;;;;;;;;;;;;;;6177204;23;19947;-85
2022/04/14 00:14:30;;;;;;;;;;;;;;;;;;6177078;23;19970;-85
2022/04/14 00:16:57;;;;;;;;;;;;;;;;;;6198349;23;20619;-85
2022/04/14 00:19:23;;;;;;;;;;;;;;;;;;6149822;23;19974;-85
2022/04/14 00:21:50;;;;;;;;;;;;;;;;;;6147456;23;19924;-85
2022/04/14 00:24:17;;;;;;;;;;;;;;;;;;6150072;23;19920;-85
2022/04/14 00:26:44;;;;;;;;;;;;;;;;;;6200299;23;19930;-85
2022/04/14 00:29:12;;;;;;;;;;;;;;;;;;6173013;23;20325;-85
2022/04/14 00:31:37;;;;;;;;;;;;;;;;;;6199887;23;19920;-85
2022/04/14 00:34:05;;;;;;;;;;;;;;;;;;6172481;23;20109;-85
2022/04/14 00:36:35;;;;;;;;;;;;;;;;;;6175656;23;19924;-85
2022/04/14 00:39:02;;;;;;;;;;;;;;;;;;6147561;23;19924;-85
2022/04/14 00:41:31;;;;;;;;;;;;;;;;;;6204936;23;19924;-85
2022/04/14 00:43:59;;;;;;;;;;;;;;;;;;6175038;23;19927;-85
2022/04/14 00:46:26;;;;;;;;;;;;;;;;;;6199775;23;19924;-86
2022/04/14 00:48:53;;;;;;;;;;;;;;;;;;6172114;23;19982;-86
2022/04/14 00:51:20;;;;;;;;;;;;;;;;;;6174732;23;19919;-85
2022/04/14 00:53:47;;;;;;;;;;;;;;;;;;6172701;23;19920;-86
2022/04/14 00:56:15;;;;;;;;;;;;;;;;;;6175367;23;19916;-86
2022/04/14 00:59:01;;;;;;;;;;;;;;;;;;6175848;23;19962;-85
2022/04/14 01:01:28;;;;;;;;;;;;;;;;;;6175234;23;20365;-85
2022/04/14 01:03:54;;;;;;;;;;;;;;;;;;6148299;23;20253;-85
2022/04/14 01:06:23;;;;;;;;;;;;;;;;;;6174086;23;19931;-85
2022/04/14 01:11:41;;;;;;;;;;;;;;;;;;6205565;23;19970;-85
2022/04/14 01:14:07;;;;;;;;;;;;;;;;;;6201563;23;19990;-85
2022/04/14 01:16:34;;;;;;;;;;;;;;;;;;6148423;23;19978;-85
2022/04/14 01:19:01;;;;;;;;;;;;;;;;;;6197455;23;19999;-85
2022/04/14 01:21:28;;;;;;;;;;;;;;;;;;6201849;23;20582;-85
2022/04/14 01:23:56;;;;;;;;;;;;;;;;;;6172052;23;19955;-85
2022/04/14 01:26:22;;;;;;;;;;;;;;;;;;6172951;23;19920;-85
2022/04/14 01:29:07;;;;;;;;;;;;;;;;;;6203414;23;19923;-85
2022/04/14 01:31:33;;;;;;;;;;;;;;;;;;6178135;23;20256;-85
2022/04/14 01:34:01;;;;;;;;;;;;;;;;;;6199771;23;20015;-85
2022/04/14 01:36:28;;;;;;;;;;;;;;;;;;6205240;23;19920;-85
2022/04/14 01:38:56;;;;;;;;;;;;;;;;;;6203758;23;19919;-85
2022/04/14 01:41:23;;;;;;;;;;;;;;;;;;6182990;23;19919;-85
2022/04/14 01:43:50;;;;;;;;;;;;;;;;;;6180467;23;20326;-85
2022/04/14 01:46:17;;;;;;;;;;;;;;;;;;6205258;23;20013;-85
2022/04/14 01:48:43;;;;;;;;;;;;;;;;;;6203532;23;19926;-85
2022/04/14 01:51:16;;;;;;;;;;;;;;;;;;6204079;23;19927;-85
2022/04/14 01:53:43;;;;;;;;;;;;;;;;;;6179879;23;19920;-85
2022/04/14 01:56:18;;;;;;;;;;;;;;;;;;6231046;23;19927;-85
2022/04/14 01:58:48;;;;;;;;;;;;;;;;;;6230358;23;19920;-85
2022/04/14 02:01:16;;;;;;;;;;;;;;;;;;6205730;23;19991;-85
2022/04/14 02:03:42;;;;;;;;;;;;;;;;;;6232585;23;19926;-85
2022/04/14 02:06:13;;;;;;;;;;;;;;;;;;6206802;23;20308;-85
2022/04/14 02:08:44;;;;;;;;;;;;;;;;;;6234360;23;19920;-85
2022/04/14 02:11:26;;;;;;;;;;;;;;;;;;6236072;23;19927;-85
2022/04/14 02:13:56;;;;;;;;;;;;;;;;;;6206893;23;20230;-85
2022/04/14 02:16:22;;;;;;;;;;;;;;;;;;6181983;23;19920;-85
2022/04/14 02:18:50;;;;;;;;;;;;;;;;;;6203421;23;19955;-86
2022/04/14 02:21:17;;;;;;;;;;;;;;;;;;6208180;23;20209;-85
2022/04/14 02:23:45;;;;;;;;;;;;;;;;;;6207417;23;19924;-85
2022/04/14 02:26:12;;;;;;;;;;;;;;;;;;6206063;23;19963;-85
2022/04/14 02:28:39;;;;;;;;;;;;;;;;;;6181382;23;19916;-85
2022/04/14 02:31:06;;;;;;;;;;;;;;;;;;6202901;23;20789;-85
2022/04/14 02:33:33;;;;;;;;;;;;;;;;;;6232460;23;19920;-85
2022/04/14 02:36:00;;;;;;;;;;;;;;;;;;6231004;23;19920;-85
2022/04/14 02:38:27;;;;;;;;;;;;;;;;;;6181138;23;19920;-85
2022/04/14 02:40:55;;;;;;;;;;;;;;;;;;6207407;23;19930;-85
2022/04/14 02:43:22;;;;;;;;;;;;;;;;;;6209064;23;19924;-85
2022/04/14 02:45:49;;;;;;;;;;;;;;;;;;6181481;23;19981;-85
2022/04/14 02:48:16;;;;;;;;;;;;;;;;;;6205863;23;20337;-85
2022/04/14 02:50:44;;;;;;;;;;;;;;;;;;6205606;23;19919;-85
2022/04/14 02:53:12;;;;;;;;;;;;;;;;;;6201633;23;19955;-85
2022/04/14 02:55:39;;;;;;;;;;;;;;;;;;6179058;23;20361;-85
2022/04/14 02:58:05;;;;;;;;;;;;;;;;;;6152541;23;20949;-85
2022/04/14 03:00:31;;;;;;;;;;;;;;;;;;6177135;23;20312;-85
2022/04/14 03:03:00;;;;;;;;;;;;;;;;;;6200188;23;19920;-85
2022/04/14 03:05:28;;;;;;;;;;;;;;;;;;6202604;23;19931;-85
2022/04/14 03:07:55;;;;;;;;;;;;;;;;;;6149776;23;19920;-85
2022/04/14 03:10:23;;;;;;;;;;;;;;;;;;6167301;23;20011;-85
2022/04/14 03:12:51;;;;;;;;;;;;;;;;;;6176688;23;19920;-85
2022/04/14 03:15:19;;;;;;;;;;;;;;;;;;6178926;23;19924;-85
2022/04/14 03:17:45;;;;;;;;;;;;;;;;;;6177959;23;19939;-85
2022/04/14 03:20:12;;;;;;;;;;;;;;;;;;6179092;23;20347;-85
2022/04/14 03:22:38;;;;;;;;;;;;;;;;;;6178685;23;19946;-85
2022/04/14 03:25:05;;;;;;;;;;;;;;;;;;6199901;23;19987;-85
2022/04/14 03:27:33;;;;;;;;;;;;;;;;;;6175190;23;19920;-85
2022/04/14 03:29:59;;;;;;;;;;;;;;;;;;6174219;23;20392;-85
2022/04/14 03:32:44;;;;;;;;;;;;;;;;;;6179135;23;19914;-85
2022/04/14 03:35:13;;;;;;;;;;;;;;;;;;6175648;23;19951;-85
2022/04/14 03:37:41;;;;;;;;;;;;;;;;;;6176364;23;20025;-85
2022/04/14 03:40:08;;;;;;;;;;;;;;;;;;6175155;23;20015;-85
2022/04/14 03:42:38;;;;;;;;;;;;;;;;;;6178862;23;20340;-85
2022/04/14 03:45:05;;;;;;;;;;;;;;;;;;6152082;23;20406;-85
2022/04/14 03:47:32;;;;;;;;;;;;;;;;;;6203539;23;20376;-85
2022/04/14 03:49:59;;;;;;;;;;;;;;;;;;6199080;23;19927;-85
2022/04/14 03:52:26;;;;;;;;;;;;;;;;;;6202021;23;20226;-85
2022/04/14 03:54:54;;;;;;;;;;;;;;;;;;6199273;23;19962;-85
2022/04/14 03:57:20;;;;;;;;;;;;;;;;;;6202430;23;20249;-85
2022/04/14 03:59:53;;;;;;;;;;;;;;;;;;6172537;23;19923;-86
2022/04/14 04:02:20;;;;;;;;;;;;;;;;;;6174302;23;20327;-86
2022/04/14 04:04:46;;;;;;;;;;;;;;;;;;6148442;23;20172;-85
2022/04/14 04:07:14;;;;;;;;;;;;;;;;;;6174844;23;19920;-86
2022/04/14 04:09:41;;;;;;;;;;;;;;;;;;6205443;23;20280;-86
2022/04/14 04:12:07;;;;;;;;;;;;;;;;;;6175169;23;19915;-85
2022/04/14 04:14:35;;;;;;;;;;;;;;;;;;6178417;23;19927;-86
2022/04/14 04:17:02;;;;;;;;;;;;;;;;;;6174224;23;19927;-85
2022/04/14 04:19:29;;;;;;;;;;;;;;;;;;6176016;23;19943;-85
2022/04/14 04:21:55;;;;;;;;;;;;;;;;;;6147580;23;19966;-85
2022/04/14 04:24:22;;;;;;;;;;;;;;;;;;6153902;23;19994;-86
2022/04/14 04:26:50;;;;;;;;;;;;;;;;;;6171649;23;19981;-85
2022/04/14 04:29:19;;;;;;;;;;;;;;;;;;6200880;23;20566;-85
2022/04/14 04:31:46;;;;;;;;;;;;;;;;;;6146388;23;20415;-86
2022/04/14 04:34:12;;;;;;;;;;;;;;;;;;6174836;23;19920;-86
2022/04/14 04:36:57;;;;;;;;;;;;;;;;;;6176692;23;19918;-86
2022/04/14 04:39:25;;;;;;;;;;;;;;;;;;6150238;23;19916;-86
2022/04/14 04:41:52;;;;;;;;;;;;;;;;;;6174077;23;20341;-86
2022/04/14 04:44:19;;;;;;;;;;;;;;;;;;6179452;23;20222;-85
2022/04/14 04:46:46;;;;;;;;;;;;;;;;;;6176243;23;20245;-86
2022/04/14 04:49:13;;;;;;;;;;;;;;;;;;6175857;23;19949;-86
2022/04/14 04:51:40;;;;;;;;;;;;;;;;;;6149358;23;19916;-85
2022/04/14 04:54:06;;;;;;;;;;;;;;;;;;6148021;23;19923;-86
2022/04/14 04:56:33;;;;;;;;;;;;;;;;;;6174905;23;19920;-85
2022/04/14 04:58:59;;;;;;;;;;;;;;;;;;6170546;23;19927;-86
2022/04/14 05:01:27;;;;;;;;;;;;;;;;;;6174553;23;19924;-86
2022/04/14 05:04:00;;;;;;;;;;;;;;;;;;6172553;23;19997;-86
2022/04/14 05:06:27;;;;;;;;;;;;;;;;;;6151057;23;19924;-85
2022/04/14 05:08:53;;;;;;;;;;;;;;;;;;6150150;23;19922;-85
2022/04/14 05:11:21;;;;;;;;;;;;;;;;;;6202024;23;20011;-85
2022/04/14 05:13:48;;;;;;;;;;;;;;;;;;6152181;23;19916;-86
2022/04/14 05:16:21;;;;;;;;;;;;;;;;;;6177294;23;19997;-86
2022/04/14 05:18:48;;;;;;;;;;;;;;;;;;6147470;23;19999;-86
2022/04/14 05:21:15;;;;;;;;;;;;;;;;;;6150473;23;19919;-85
2022/04/14 05:23:42;;;;;;;;;;;;;;;;;;6175184;23;19924;-86
2022/04/14 05:26:08;;;;;;;;;;;;;;;;;;6148289;23;19927;-85
2022/04/14 05:28:35;;;;;;;;;;;;;;;;;;6171690;23;19919;-86
2022/04/14 05:31:01;;;;;;;;;;;;;;;;;;6172068;23;20296;-85
2022/04/14 05:33:28;;;;;;;;;;;;;;;;;;6151596;23;19923;-85
2022/04/14 05:35:55;;;;;;;;;;;;;;;;;;6175042;23;20292;-85
2022/04/14 05:38:21;;;;;;;;;;;;;;;;;;6178625;23;19974;-85
2022/04/14 05:40:48;;;;;;;;;;;;;;;;;;6150952;23;19942;-85
2022/04/14 05:43:15;;;;;;;;;;;;;;;;;;6181369;23;19916;-85
2022/04/14 05:45:48;;;;;;;;;;;;;;;;;;6183003;23;20292;-85
2022/04/14 05:48:24;;;;;;;;;;;;;;;;;;6181004;23;19916;-85
2022/04/14 05:50:50;;;;;;;;;;;;;;;;;;6151013;23;19931;-85
2022/04/14 05:53:18;;;;;;;;;;;;;;;;;;6154824;23;19959;-85
2022/04/14 05:55:48;;;;;;;;;;;;;;;;;;6178829;23;19919;-85
2022/04/14 05:58:14;;;;;;;;;;;;;;;;;;6154367;23;19995;-84
2022/04/14 06:00:41;;;;;;;;;;;;;;;;;;6179272;23;19920;-84
2022/04/14 06:03:08;;;;;;;;;;;;;;;;;;6203301;23;19927;-85
2022/04/14 06:05:35;;;;;;;;;;;;;;;;;;6179854;23;19990;-85
2022/04/14 06:08:03;;;;;;;;;;;;;;;;;;6177341;23;19947;-85
2022/04/14 06:10:30;;;;;;;;;;;;;;;;;;6173698;23;19923;-85
2022/04/14 06:12:57;;;;;;;;;;;;;;;;;;6173588;23;19990;-85
2022/04/14 06:15:26;;;;;;;;;;;;;;;;;;6208513;23;19923;-85
2022/04/14 06:17:54;;;;;;;;;;;;;;;;;;6178518;23;19983;-85
2022/04/14 06:20:21;;;;;;;;;;;;;;;;;;6178037;23;19920;-85
2022/04/14 06:22:47;;;;;;;;;;;;;;;;;;6176028;23;19926;-85
2022/04/14 06:25:16;;;;;;;;;;;;;;;;;;6153848;23;19928;-85
2022/04/14 06:27:43;;;;;;;;;;;;;;;;;;6181806;23;19921;-85
2022/04/14 06:30:11;;;;;;;;;;;;;;;;;;6180564;23;20317;-85
2022/04/14 06:32:38;;;;;;;;;;;;;;;;;;6181289;23;20635;-85
2022/04/14 06:35:08;;;;;;;;;;;;;;;;;;6205312;23;20458;-85
2022/04/14 06:37:36;;;;;;;;;;;;;;;;;;6180360;23;19970;-85
2022/04/14 06:40:03;;;;;;;;;;;;;;;;;;6203925;23;19950;-85
2022/04/14 06:42:30;;;;;;;;;;;;;;;;;;6206403;23;19920;-85
2022/04/14 06:44:56;;;;;;;;;;;;;;;;;;6151813;23;20166;-85
2022/04/14 06:47:24;;;;;;;;;;;;;;;;;;6180128;23;19989;-85
2022/04/14 06:49:51;;;;;;;;;;;;;;;;;;6177506;23;19974;-85
2022/04/14 06:52:18;;;;;;;;;;;;;;;;;;6179624;23;20349;-85
2022/04/14 06:54:44;;;;;;;;;;;;;;;;;;6178325;23;19924;-85
2022/04/14 06:57:29;;;;;;;;;;;;;;;;;;6208758;23;19963;-85
2022/04/14 06:59:56;;;;;;;;;;;;;;;;;;6175706;23;19920;-85
2022/04/14 07:02:23;;;;;;;;;;;;;;;;;;6204111;23;20038;-85
2022/04/14 07:04:51;;;;;;;;;;;;;;;;;;6177200;23;20748;-84
2022/04/14 07:07:18;;;;;;;;;;;;;;;;;;6155560;23;19927;-85
2022/04/14 07:09:44;;;;;;;;;;;;;;;;;;6205390;23;19920;-85
2022/04/14 07:12:10;;;;;;;;;;;;;;;;;;6154189;23;20023;-85
2022/04/14 07:14:52;;;;;;;;;;;;;;;;;;6151428;23;19966;-85
2022/04/14 07:17:22;;;;;;;;;;;;;;;;;;6155082;23;19967;-85
2022/04/14 07:19:50;;;;;;;;;;;;;;;;;;6178055;23;19916;-86
2022/04/14 07:22:18;;;;;;;;;;;;;;;;;;6178783;23;19920;-85
2022/04/14 07:25:04;;;;;;;;;;;;;;;;;;6085739;23;19975;-85
2022/04/14 07:27:31;;;;;;;;;;;;;;;;;;6138368;23;20616;-85
2022/04/14 07:29:58;;;;;;;;;;;;;;;;;;6135962;23;19920;-85
2022/04/14 07:32:26;;;;;;;;;;;;;;;;;;6114051;23;19921;-86
2022/04/14 07:34:53;;;;;;;;;;;;;;;;;;6086923;23;19921;-86
2022/04/14 07:37:20;;;;;;;;;;;;;;;;;;6114064;23;19920;-86
2022/04/14 07:39:47;;;;;;;;;;;;;;;;;;6087245;23;19931;-85
2022/04/14 07:42:15;;;;;;;;;;;;;;;;;;6138806;23;19917;-86
2022/04/14 07:44:42;;;;;;;;;;;;;;;;;;6138675;23;19944;-85
2022/04/14 07:47:08;;;;;;;;;;;;;;;;;;6087622;23;20117;-85
2022/04/14 07:49:49;;;;;;;;;;;;;;;;;;6104965;23;20653;-85
2022/04/14 07:52:18;;;;;;;;;;;;;;;;;;6084752;23;19944;-85
2022/04/14 07:54:48;;;;;;;;;;;;;;;;;;6132760;23;20220;-86
2022/04/14 07:57:14;;;;;;;;;;;;;;;;;;6083301;23;20366;-86
2022/04/14 07:59:47;;;;;;;;;;;;;;;;;;6080648;23;19928;-86
2022/04/14 08:02:14;;;;;;;;;;;;;;;;;;6084331;23;19917;-85
2022/04/14 08:04:42;;;;;;;;;;;;;;;;;;6132935;23;20342;-85
2022/04/14 08:07:09;;;;;;;;;;;;;;;;;;6133730;23;20370;-86
2022/04/14 08:09:36;;;;;;;;;;;;;;;;;;6154668;23;19916;-85
2022/04/14 08:12:03;;;;;;;;;;;;;;;;;;6148298;23;19916;-86
2022/04/14 08:14:30;;;;;;;;;;;;;;;;;;6148436;23;19987;-86
2022/04/14 08:17:03;;;;;;;;;;;;;;;;;;6145641;23;19920;-85
2022/04/14 08:19:29;;;;;;;;;;;;;;;;;;6150766;23;20246;-86
2022/04/14 08:21:59;;;;;;;;;;;;;;;;;;6203877;23;19980;-86
2022/04/14 08:24:26;;;;;;;;;;;;;;;;;;6177478;23;20357;-86
2022/04/14 08:26:52;;;;;;;;;;;;;;;;;;6202225;23;19963;-86
2022/04/14 08:29:18;;;;;;;;;;;;;;;;;;6175639;23;19969;-86
2022/04/14 08:32:06;;;;;;;;;;;;;;;;;;6089834;23;19916;-86
2022/04/14 08:34:32;;;;;;;;;;;;;;;;;;6134735;23;19921;-86
2022/04/14 08:37:01;;;;;;;;;;;;;;;;;;6133265;23;20341;-86
2022/04/14 08:39:29;;;;;;;;;;;;;;;;;;6112349;23;20334;-87
2022/04/14 08:41:56;;;;;;;;;;;;;;;;;;6105396;23;20375;-86
2022/04/14 08:44:25;;;;;;;;;;;;;;;;;;6082520;23;19921;-87
2022/04/14 08:46:55;;;;;;;;;;;;;;;;;;6130527;23;19925;-87
2022/04/14 08:49:36;;;;;;;;;;;;;;;;;;6082814;23;19921;-86
2022/04/14 08:52:03;;;;;;;;;;;;;;;;;;6077409;23;20301;-86
2022/04/14 08:54:30;;;;;;;;;;;;;;;;;;6053701;23;19925;-87
2022/04/14 08:56:58;;;;;;;;;;;;;;;;;;6077379;23;19983;-87
2022/04/14 08:59:25;;;;;;;;;;;;;;;;;;6055365;23;20144;-87
2022/04/14 09:01:56;;;;;;;;;;;;;;;;;;6078406;23;19921;-87
2022/04/14 09:04:23;;;;;;;;;;;;;;;;;;6109365;23;19921;-87
2022/04/14 09:06:51;;;;;;;;;;;;;;;;;;6083142;23;20389;-87
2022/04/14 09:09:18;;;;;;;;;;;;;;;;;;6112856;23;19928;-87
2022/04/14 09:11:44;;;;;;;;;;;;;;;;;;6088462;23;19917;-86
2022/04/14 09:14:11;;;;;;;;;;;;;;;;;;6084525;23;19983;-87
2022/04/14 09:16:38;;;;;;;;;;;;;;;;;;6089343;23;19960;-86
2022/04/14 09:19:05;;;;;;;;;;;;;;;;;;6089695;23;20079;-86
2022/04/14 09:21:31;;;;;;;;;;;;;;;;;;6144654;23;19920;-86
2022/04/14 09:24:12;;;;;;;;;;;;;;;;;;6141601;23;19920;-86
2022/04/14 09:26:38;;;;;;;;;;;;;;;;;;6093507;23;20334;-86
2022/04/14 09:29:06;;;;;;;;;;;;;;;;;;6139194;23;20389;-86
2022/04/14 09:31:33;;;;;;;;;;;;;;;;;;6119770;23;20342;-87
2022/04/14 09:34:00;;;;;;;;;;;;;;;;;;6138555;23;19920;-87
2022/04/14 09:36:27;;;;;;;;;;;;;;;;;;6140778;23;20004;-87
2022/04/14 09:38:55;;;;;;;;;;;;;;;;;;6140896;23;19927;-87
2022/04/14 09:41:22;;;;;;;;;;;;;;;;;;6116824;23;19924;-87
2022/04/14 09:43:49;;;;;;;;;;;;;;;;;;6167914;23;19920;-87
2022/04/14 09:46:18;;;;;;;;;;;;;;;;;;6146662;23;19920;-87
2022/04/14 09:48:46;;;;;;;;;;;;;;;;;;6145712;23;19920;-87
2022/04/14 09:51:13;;;;;;;;;;;;;;;;;;6172163;23;19967;-87
2022/04/14 09:53:55;;;;;;;;;;;;;;;;;;6123118;23;19992;-87
2022/04/14 09:56:23;;;;;;;;;;;;;;;;;;6089684;23;20453;-86
2022/04/14 09:59:10;;;;;;;;;;;;;;;;;;6056146;23;19926;-87
2022/04/14 10:01:50;;;;;;;;;;;;;;;;;;6055923;23;20385;-86
2022/04/14 10:04:18;;;;;;;;;;;;;;;;;;6006443;23;19921;-86
2022/04/14 10:06:44;;;;;;;;;;;;;;;;;;6028510;23;20004;-87
2022/04/14 10:09:11;;;;;;;;;;;;;;;;;;6028653;23;19980;-87
2022/04/14 10:11:40;;;;;;;;;;;;;;;;;;6030626;23;19918;-87
2022/04/14 10:14:13;;;;;;;;;;;;;;;;;;6054239;23;19946;-86
2022/04/14 10:16:49;;;;;;;;;;;;;;;;;;6054919;23;20434;-87
2022/04/14 10:19:16;;;;;;;;;;;;;;;;;;6030291;23;19950;-87
2022/04/14 10:21:44;;;;;;;;;;;;;;;;;;6030504;23;20351;-86
2022/04/14 10:24:11;;;;;;;;;;;;;;;;;;6074664;23;20246;-87
2022/04/14 10:26:38;;;;;;;;;;;;;;;;;;6142662;23;20447;-87
2022/04/14 10:29:08;;;;;;;;;;;;;;;;;;6144615;23;20403;-86
2022/04/14 10:31:39;;;;;;;;;;;;;;;;;;6146791;23;19923;-87
2022/04/14 10:34:07;;;;;;;;;;;;;;;;;;6115807;23;19930;-87
2022/04/14 10:36:36;;;;;;;;;;;;;;;;;;6141630;23;20464;-87
2022/04/14 10:39:07;;;;;;;;;;;;;;;;;;6116357;23;19987;-87
2022/04/14 10:41:34;;;;;;;;;;;;;;;;;;6141642;23;19921;-87
2022/04/14 10:44:01;;;;;;;;;;;;;;;;;;6090413;23;20260;-86
2022/04/14 10:46:28;;;;;;;;;;;;;;;;;;6117311;23;19931;-87
2022/04/14 10:48:55;;;;;;;;;;;;;;;;;;6115822;23;19920;-87
2022/04/14 10:51:27;;;;;;;;;;;;;;;;;;6118063;23;20293;-87
2022/04/14 10:53:55;;;;;;;;;;;;;;;;;;6105973;23;20064;-87
2022/04/14 10:56:23;;;;;;;;;;;;;;;;;;6133464;23;19923;-87
2022/04/14 10:58:50;;;;;;;;;;;;;;;;;;6149463;23;20078;-87
2022/04/14 11:01:18;;;;;;;;;;;;;;;;;;6152511;23;19956;-87
2022/04/14 11:03:45;;;;;;;;;;;;;;;;;;6147455;23;19931;-87
2022/04/14 11:06:31;;;;;;;;;;;;;;;;;;6087348;23;19985;-87
2022/04/14 11:09:00;;;;;;;;;;;;;;;;;;6061921;23;19920;-87
2022/04/14 11:11:26;;;;;;;;;;;;;;;;;;6088326;23;20295;-87
2022/04/14 11:14:08;;;;;;;;;;;;;;;;;;6080220;23;19921;-86
2022/04/14 11:17:07;;;;;;;;;;;;;;;;;;6052025;23;19988;-87
2022/04/14 11:19:34;;;;;;;;;;;;;;;;;;6006821;23;19921;-87
2022/04/14 11:22:08;;;;;;;;;;;;;;;;;;6027386;23;19926;-87
2022/04/14 11:24:41;;;;;;;;;;;;;;;;;;6006843;23;19956;-87
2022/04/14 11:27:08;;;;;;;;;;;;;;;;;;6029820;23;19948;-87
2022/04/14 11:29:35;;;;;;;;;;;;;;;;;;6034542;23;20381;-87
2022/04/14 11:32:03;;;;;;;;;;;;;;;;;;6030677;23;19929;-87
2022/04/14 11:34:48;;;;;;;;;;;;;;;;;;5966855;24;19999;-88
2022/04/14 11:37:15;;;;;;;;;;;;;;;;;;5944946;24;19954;-88
2022/04/14 11:39:42;;;;;;;;;;;;;;;;;;5945552;24;19949;-87
2022/04/14 11:42:11;;;;;;;;;;;;;;;;;;5943370;24;20018;-87
2022/04/14 11:44:40;;;;;;;;;;;;;;;;;;5978734;23;19922;-87
2022/04/14 11:47:07;;;;;;;;;;;;;;;;;;5970715;23;20332;-87
2022/04/14 11:49:35;;;;;;;;;;;;;;;;;;6002240;23;19959;-87
2022/04/14 11:52:02;;;;;;;;;;;;;;;;;;5998907;23;19957;-87
2022/04/14 11:54:29;;;;;;;;;;;;;;;;;;6035241;23;19926;-87
2022/04/14 11:56:56;;;;;;;;;;;;;;;;;;5999094;23;19928;-86
2022/04/14 11:59:24;;;;;;;;;;;;;;;;;;6005410;23;19994;-87
2022/04/14 12:01:51;;;;;;;;;;;;;;;;;;6026838;23;19921;-87
2022/04/14 12:04:17;;;;;;;;;;;;;;;;;;6034461;23;19918;-87
2022/04/14 12:06:44;;;;;;;;;;;;;;;;;;6140153;23;19925;-88
2022/04/14 12:09:26;;;;;;;;;;;;;;;;;;6145723;23;19927;-87
2022/04/14 12:11:53;;;;;;;;;;;;;;;;;;6117653;23;20253;-87
2022/04/14 12:14:20;;;;;;;;;;;;;;;;;;6116064;23;19920;-88
2022/04/14 12:16:48;;;;;;;;;;;;;;;;;;6112568;23;19920;-87
2022/04/14 12:19:15;;;;;;;;;;;;;;;;;;6116975;23;20289;-87
2022/04/14 12:21:48;;;;;;;;;;;;;;;;;;6113667;23;19923;-87
2022/04/14 12:24:17;;;;;;;;;;;;;;;;;;6116374;23;20331;-87
2022/04/14 12:26:43;;;;;;;;;;;;;;;;;;6115597;23;19996;-87
2022/04/14 12:29:15;;;;;;;;;;;;;;;;;;6097046;23;20277;-86
2022/04/14 12:31:46;;;;;;;;;;;;;;;;;;6120319;23;19924;-87
2022/04/14 12:34:13;;;;;;;;;;;;;;;;;;6119706;23;19927;-86
2022/04/14 12:36:40;;;;;;;;;;;;;;;;;;6145252;23;20320;-86
2022/04/14 12:39:07;;;;;;;;;;;;;;;;;;6142873;23;19921;-87
2022/04/14 12:41:35;;;;;;;;;;;;;;;;;;6151013;23;19923;-86
2022/04/14 12:44:02;;;;;;;;;;;;;;;;;;6175825;23;19924;-87
2022/04/14 12:46:32;;;;;;;;;;;;;;;;;;6177662;23;19954;-87
2022/04/14 12:48:59;;;;;;;;;;;;;;;;;;6122810;23;19943;-87
2022/04/14 12:51:26;;;;;;;;;;;;;;;;;;6149191;23;19920;-86
2022/04/14 12:53:53;;;;;;;;;;;;;;;;;;6153674;23;19990;-87
2022/04/14 12:56:21;;;;;;;;;;;;;;;;;;6205326;23;19920;-86
2022/04/14 12:58:48;;;;;;;;;;;;;;;;;;6204033;23;19982;-87
2022/04/14 13:01:16;;;;;;;;;;;;;;;;;;6204523;23;19927;-87
2022/04/14 13:03:57;;;;;;;;;;;;;;;;;;6139846;23;19935;-87
2022/04/14 13:06:37;;;;;;;;;;;;;;;;;;6094841;23;19966;-87
2022/04/14 13:09:05;;;;;;;;;;;;;;;;;;6110217;23;20441;-87
2022/04/14 13:11:32;;;;;;;;;;;;;;;;;;6114746;23;20000;-87
2022/04/14 13:14:00;;;;;;;;;;;;;;;;;;6112995;23;19948;-87
2022/04/14 13:16:28;;;;;;;;;;;;;;;;;;6115394;23;19978;-87
2022/04/14 13:18:59;;;;;;;;;;;;;;;;;;6112998;23;19917;-87
2022/04/14 13:21:26;;;;;;;;;;;;;;;;;;6066878;23;19921;-87
2022/04/14 13:23:53;;;;;;;;;;;;;;;;;;6112899;23;19928;-87
2022/04/14 13:26:21;;;;;;;;;;;;;;;;;;6114782;23;19944;-87
2022/04/14 13:28:48;;;;;;;;;;;;;;;;;;6087602;23;19924;-87
2022/04/14 13:31:16;;;;;;;;;;;;;;;;;;6115654;23;19921;-87
2022/04/14 13:33:43;;;;;;;;;;;;;;;;;;6066839;23;19948;-86
2022/04/14 13:36:09;;;;;;;;;;;;;;;;;;6124675;23;20241;-87
2022/04/14 13:38:43;;;;;;;;;;;;;;;;;;6205525;23;19926;-87
2022/04/14 13:41:09;;;;;;;;;;;;;;;;;;6153956;23;19923;-87
2022/04/14 13:43:38;;;;;;;;;;;;;;;;;;6179807;23;19927;-87
2022/04/14 13:46:06;;;;;;;;;;;;;;;;;;6177685;23;20956;-87
2022/04/14 13:48:33;;;;;;;;;;;;;;;;;;6155184;23;19990;-86
2022/04/14 13:51:01;;;;;;;;;;;;;;;;;;6152701;23;19981;-86
2022/04/14 13:53:28;;;;;;;;;;;;;;;;;;6180762;23;19927;-86
2022/04/14 13:55:55;;;;;;;;;;;;;;;;;;6153973;23;20002;-86
2022/04/14 13:58:22;;;;;;;;;;;;;;;;;;6158227;23;19924;-86
2022/04/14 14:00:50;;;;;;;;;;;;;;;;;;6180276;23;19922;-87
2022/04/14 14:03:17;;;;;;;;;;;;;;;;;;6157522;23;20222;-86
2022/04/14 14:05:48;;;;;;;;;;;;;;;;;;6181272;23;20364;-86
2022/04/14 14:08:14;;;;;;;;;;;;;;;;;;6207662;23;19920;-86
2022/04/14 14:10:42;;;;;;;;;;;;;;;;;;6155531;23;20003;-86
2022/04/14 14:13:09;;;;;;;;;;;;;;;;;;6177523;23;19920;-86
2022/04/14 14:15:36;;;;;;;;;;;;;;;;;;6179337;23;19916;-87
2022/04/14 14:18:06;;;;;;;;;;;;;;;;;;6178191;23;19920;-86
2022/04/14 14:20:34;;;;;;;;;;;;;;;;;;6207514;23;20301;-86
2022/04/14 14:23:04;;;;;;;;;;;;;;;;;;6177603;23;20272;-86
2022/04/14 14:25:32;;;;;;;;;;;;;;;;;;6154960;23;19924;-86
2022/04/14 14:28:00;;;;;;;;;;;;;;;;;;6204925;23;20226;-86
2022/04/14 14:30:26;;;;;;;;;;;;;;;;;;6179191;23;19917;-86
2022/04/14 14:32:53;;;;;;;;;;;;;;;;;;6176995;23;19938;-86
2022/04/14 14:35:21;;;;;;;;;;;;;;;;;;6158734;23;19927;-86
2022/04/14 14:37:48;;;;;;;;;;;;;;;;;;6177813;23;19916;-87
2022/04/14 14:40:15;;;;;;;;;;;;;;;;;;6181478;23;20341;-86
2022/04/14 14:42:43;;;;;;;;;;;;;;;;;;6178942;23;19919;-86
2022/04/14 14:45:24;;;;;;;;;;;;;;;;;;6179963;23;19931;-86
2022/04/14 14:47:51;;;;;;;;;;;;;;;;;;6145605;23;19943;-85
2022/04/14 14:50:34;;;;;;;;;;;;;;;;;;6204940;23;20003;-86
2022/04/14 14:53:00;;;;;;;;;;;;;;;;;;6152060;23;19916;-83
2022/04/14 14:55:27;;;;;;;;;;;;;;;;;;6179295;23;19931;-86
2022/04/14 15:00:46;;;;;;;;;;;;;;;;;;6181460;23;19927;-86
2022/04/14 15:03:23;;;;;;;;;;;;;;;;;;6205753;23;20479;-86
2022/04/14 15:05:50;;;;;;;;;;;;;;;;;;6152785;23;19924;-86
2022/04/14 15:08:17;;;;;;;;;;;;;;;;;;6206086;23;19986;-85
2022/04/14 15:10:43;;;;;;;;;;;;;;;;;;6181485;23;20001;-86
2022/04/14 15:13:16;;;;;;;;;;;;;;;;;;6180515;23;20336;-86
2022/04/14 15:15:48;;;;;;;;;;;;;;;;;;6154588;23;19959;-86
2022/04/14 15:18:15;;;;;;;;;;;;;;;;;;6179469;23;20362;-86
2022/04/14 15:20:42;;;;;;;;;;;;;;;;;;6179950;23;19931;-85
2022/04/14 15:23:10;;;;;;;;;;;;;;;;;;6200720;23;19920;-85
2022/04/14 15:25:36;;;;;;;;;;;;;;;;;;6155312;23;19970;-86
2022/04/14 15:28:03;;;;;;;;;;;;;;;;;;6176425;23;19966;-86
2022/04/14 15:30:31;;;;;;;;;;;;;;;;;;6179261;23;19919;-85
2022/04/14 15:32:58;;;;;;;;;;;;;;;;;;6177801;23;20316;-85
2022/04/14 15:35:28;;;;;;;;;;;;;;;;;;6179074;23;20331;-85
2022/04/14 15:38:02;;;;;;;;;;;;;;;;;;6177472;23;19927;-86
2022/04/14 15:40:29;;;;;;;;;;;;;;;;;;6150971;23;20547;-84
2022/04/14 15:42:56;;;;;;;;;;;;;;;;;;6148135;23;19923;-86
2022/04/14 15:45:23;;;;;;;;;;;;;;;;;;6176110;23;19916;-86
2022/04/14 15:47:51;;;;;;;;;;;;;;;;;;6147718;23;19927;-86
2022/04/14 15:50:18;;;;;;;;;;;;;;;;;;6203650;23;19935;-86
2022/04/14 15:52:50;;;;;;;;;;;;;;;;;;6209465;23;20381;-86
2022/04/14 15:55:17;;;;;;;;;;;;;;;;;;6176709;23;19923;-85
2022/04/14 15:57:47;;;;;;;;;;;;;;;;;;6174836;23;19916;-86
2022/04/14 16:00:20;;;;;;;;;;;;;;;;;;6176828;23;19919;-86
2022/04/14 16:02:47;;;;;;;;;;;;;;;;;;6150398;23;19919;-86
2022/04/14 16:05:14;;;;;;;;;;;;;;;;;;6178361;23;19993;-86
2022/04/14 16:07:41;;;;;;;;;;;;;;;;;;6150820;23;19927;-86
2022/04/14 16:13:10;;;;;;;;;;;;;;;;;;6148392;23;20023;-87
2022/04/14 16:15:38;;;;;;;;;;;;;;;;;;6175810;23;19991;-86
2022/04/14 16:18:07;;;;;;;;;;;;;;;;;;6172549;23;19920;-86
2022/04/14 16:20:35;;;;;;;;;;;;;;;;;;6176185;23;19951;-86
2022/04/14 16:23:02;;;;;;;;;;;;;;;;;;6174930;23;20390;-86
2022/04/14 16:25:29;;;;;;;;;;;;;;;;;;6176863;23;19920;-86
2022/04/14 16:27:56;;;;;;;;;;;;;;;;;;6202609;23;19916;-87
2022/04/14 16:30:24;;;;;;;;;;;;;;;;;;6204732;23;19916;-86
2022/04/14 16:33:11;;;;;;;;;;;;;;;;;;6108553;23;19917;-87
2022/04/14 16:36:05;;;;;;;;;;;;;;;;;;6048891;23;19952;-86
2022/04/14 16:38:33;;;;;;;;;;;;;;;;;;6028283;23;19997;-86
2022/04/14 16:41:04;;;;;;;;;;;;;;;;;;6051055;23;19921;-86
2022/04/14 16:43:29;;;;;;;;;;;;;;;;;;6051384;23;19988;-87
2022/04/14 16:45:57;;;;;;;;;;;;;;;;;;6051007;23;20037;-87
2022/04/14 16:48:24;;;;;;;;;;;;;;;;;;6028390;23;19917;-87
2022/04/14 16:50:51;;;;;;;;;;;;;;;;;;6023969;23;19925;-86
2022/04/14 16:53:18;;;;;;;;;;;;;;;;;;6051381;23;20243;-87
2022/04/14 16:55:48;;;;;;;;;;;;;;;;;;6027184;23;20229;-87
2022/04/14 16:58:16;;;;;;;;;;;;;;;;;;6024308;23;19922;-86
2022/04/14 17:00:42;;;;;;;;;;;;;;;;;;5999343;23;19926;-87
2022/04/14 17:03:10;;;;;;;;;;;;;;;;;;6005200;23;19925;-87
2022/04/14 17:05:36;;;;;;;;;;;;;;;;;;6084978;23;19921;-86